Moses Lake, Washington
Current Conditions -  °F | °C
As of 2:52 PM on Wednesday 26 Nov 2014 (Local Time) from KMWH Reporting Station
Moderate Fog Moderate Fog  
Wind Chill: 39°   Ceiling: 200
Heat Index: 39°   Visibility: 0.5mi
Dew Point: 38°   Wind: 0mph
Humidity: 96%   Direction: NA
Pressure: 30.12"   Gusts: NA
Location:  47.13°N, 119.27°W
Report Text: KMWH 262252Z 00000KT 1/2SM R32R/P6000FT FG OVC002 04/03 A3012 RMK AO2 SLP209 T00390033
Loading
Personal Weather Stations






























Interactive Weather Map New forecast layout! Learn more

10-Day Weather Forecast

Advertisements
Track Severe Weather on mobile